Terminal Aerodrome Forecast
Issued by NWS

Home | Current Version | Previous Version | Text Only | Print | Product List | Glossary On
Versions: 1 2 3 4 5 6 7 8 9 10 11 12 13
186
FTUS45 KABQ 272013 AAA
TAFLVS
TAF AMD
KLVS 272013Z 2720/2818 29014G24KT P6SM VCSH BKN070
      TEMPO 2720/2724 VRB15G24KT
     FM280200 31011KT P6SM SCT070=

USA.gov is the U.S. government's official web portal to all federal, state and local government web resources and services.